| time (UTC) | temp F | wind direction | speed MPH | gust MPH | rain 1hr in | rain 24hr in | rain mn in | humidity % | barometer mb |
| 20260904144804 | 62 | 272 | 7.0 | 9.0 | 0.00 | 1.21 | 0.01 | 80 | 997.3 |
| 20260904144604 | 62 | 270 | 5.0 | 10.0 | 0.00 | 0.31 | 0.00 | 80 | 997.2 |
| 20260904144304 | 62 | 268 | 7.0 | 9.0 | 0.00 | 1.22 | 0.01 | 81 | 997.3 |
| 20260904143804 | 62 | 267 | 6.0 | 10.0 | 0.00 | 1.23 | 0.01 | 81 | 997.4 |
| 20260904143304 | 62 | 264 | 9.0 | 12.0 | 0.00 | 1.24 | 0.01 | 81 | 997.5 |
| 20260904143107 | 61 | 266 | 8.0 | 11.0 | 0.00 | 0.31 | 0.00 | 81 | 997.5 |
| 20260904141804 | 61 | 279 | 6.0 | 8.0 | 0.00 | 1.27 | 0.01 | 82 | 997.6 |
| 20260904141624 | 60 | 287 | 5.0 | 10.0 | 0.00 | 0.31 | 0.00 | 81 | 997.6 |
| 20260904141304 | 61 | 285 | 7.0 | 9.0 | 0.00 | 1.26 | 0.01 | 82 | 997.7 |
| 20260904140804 | 61 | 269 | 6.0 | 10.0 | 0.00 | 1.27 | 0.01 | 81 | 997.8 |
| 20260904140110 | 60 | 285 | 8.0 | 11.0 | 0.00 | 0.31 | 0.00 | 81 | 997.8 |
| 20260904134621 | 60 | 277 | 7.0 | 11.0 | 0.00 | 0.32 | 0.00 | 80 | 997.9 |
| 20260904134304 | 61 | 270 | 9.0 | 12.0 | 0.00 | 1.28 | 0.01 | 80 | 998.0 |
| 20260904133804 | 61 | 271 | 8.0 | 12.0 | 0.00 | 1.28 | 0.01 | 80 | 998.1 |
| 20260904133117 | 61 | 259 | 7.0 | 11.0 | 0.00 | 0.32 | 0.00 | 79 | 998.0 |
| 20260904131804 | 61 | 263 | 9.0 | 12.0 | 0.00 | 1.28 | 0.01 | 79 | 998.2 |
| 20260904131615 | 60 | 271 | 9.0 | 12.0 | 0.00 | 0.32 | 0.00 | 78 | 998.1 |
| 20260904130803 | 61 | 269 | 8.0 | 12.0 | 0.00 | 1.28 | 0.01 | 79 | 998.3 |
| 20260904130304 | 61 | 286 | 7.0 | 12.0 | 0.00 | 1.28 | 0.01 | 79 | 998.4 |
| 20260904130105 | 61 | 280 | 7.0 | 12.0 | 0.00 | 0.32 | 0.00 | 78 | 998.3 |
| 20260904124804 | 61 | 266 | 10.0 | 12.0 | 0.00 | 1.28 | 0.01 | 78 | 998.3 |
| 20260904124607 | 60 | 268 | 8.0 | 12.0 | 0.00 | 0.32 | 0.00 | 78 | 998.3 |
| 20260904124304 | 60 | 276 | 9.0 | 12.0 | 0.00 | 1.28 | 0.01 | 79 | 998.3 |
| 20260904123804 | 60 | 268 | 8.0 | 12.0 | 0.00 | 1.28 | 0.01 | 80 | 998.4 |
| 20260904123304 | 61 | 282 | 10.0 | 13.0 | 0.00 | 1.28 | 0.01 | 81 | 998.4 |
| 20260904123133 | 60 | 284 | 8.0 | 13.0 | 0.00 | 0.32 | 0.00 | 80 | 998.3 |
| 20260904121804 | 61 | 278 | 10.0 | 12.0 | 0.00 | 1.28 | 0.01 | 81 | 998.5 |
| 20260904121603 | 60 | 278 | 9.0 | 13.0 | 0.00 | 0.32 | 0.00 | 81 | 998.5 |
| 20260904121304 | 61 | 261 | 10.0 | 13.0 | 0.00 | 1.28 | 0.01 | 81 | 998.5 |
| 20260904120803 | 61 | 267 | 9.0 | 12.0 | 0.00 | 1.28 | 0.01 | 82 | 998.5 |
| 20260904120304 | 61 | 265 | 11.0 | 14.0 | 0.00 | 1.28 | 0.01 | 81 | 998.5 |
| 20260904120109 | 61 | 271 | 9.0 | 14.0 | 0.00 | 0.32 | 0.00 | 81 | 998.5 |
| 20260904114804 | 61 | 271 | 10.0 | 14.0 | 0.00 | 1.28 | 0.01 | 81 | 998.7 |
| 20260904114609 | 60 | 272 | 12.0 | 15.0 | 0.00 | 0.32 | 0.00 | 80 | 998.8 |
| 20260904114304 | 61 | 265 | 11.0 | 14.0 | 0.00 | 1.28 | 0.01 | 81 | 998.8 |
| 20260904113804 | 61 | 271 | 12.0 | 15.0 | 0.00 | 1.28 | 0.01 | 81 | 998.8 |
| 20260904113111 | 60 | 266 | 13.0 | 16.0 | 0.00 | 0.32 | 0.00 | 81 | 998.7 |
| 20260904111613 | 60 | 268 | 11.0 | 16.0 | 0.00 | 0.32 | 0.00 | 81 | 998.9 |
| 20260904111304 | 61 | 268 | 11.0 | 15.0 | 0.00 | 1.28 | 0.01 | 82 | 999.0 |
| 20260904110804 | 61 | 265 | 14.0 | 16.0 | 0.00 | 1.28 | 0.01 | 82 | 998.9 |
| 20260904110304 | 61 | 270 | 12.0 | 16.0 | 0.00 | 1.28 | 0.01 | 82 | 999.0 |
| 20260904110111 | 61 | 260 | 12.0 | 16.0 | 0.00 | 0.32 | 0.00 | 81 | 999.0 |
| 20260904104804 | 61 | 263 | 12.0 | 14.0 | 0.00 | 1.28 | 0.01 | 82 | 999.0 |
| 20260904104605 | 61 | 264 | 11.0 | 16.0 | 0.00 | 0.32 | 0.00 | 81 | 999.0 |
| 20260904103804 | 61 | 269 | 10.0 | 16.0 | 0.00 | 1.28 | 0.01 | 82 | 999.2 |
| 20260904103304 | 61 | 266 | 12.0 | 17.0 | 0.00 | 1.28 | 0.01 | 82 | 999.3 |
| 20260904103107 | 61 | 270 | 12.0 | 17.0 | 0.00 | 0.32 | 0.00 | 81 | 999.4 |
| 20260904101606 | 60 | 282 | 12.0 | 17.0 | 0.00 | 0.32 | 0.00 | 81 | 999.4 |
| 20260904101304 | 61 | 266 | 13.0 | 17.0 | 0.00 | 1.28 | 0.01 | 81 | 999.5 |
| 20260904100304 | 61 | 268 | 14.0 | 18.0 | 0.00 | 1.27 | 0.01 | 81 | 999.6 |
| 20260904100111 | 60 | 263 | 11.0 | 18.0 | 0.00 | 0.32 | 0.00 | 81 | 999.6 |
| 20260904094804 | 60 | 274 | 13.0 | 18.0 | 0.00 | 1.27 | 0.01 | 80 | 999.7 |
| 20260904094608 | 60 | 284 | 13.0 | 19.0 | 0.00 | 0.32 | 0.00 | 79 | 999.6 |
| 20260904094304 | 60 | 280 | 14.0 | 20.0 | 0.00 | 1.27 | 0.01 | 80 | 999.8 |
| 20260904093804 | 60 | 266 | 14.0 | 18.0 | 0.00 | 1.27 | 0.01 | 80 | 999.8 |
| 20260904093304 | 60 | 271 | 15.0 | 22.0 | 0.00 | 1.27 | 0.01 | 81 | 999.9 |
| 20260904093108 | 60 | 268 | 14.0 | 22.0 | 0.00 | 0.32 | 0.00 | 81 | 1000.1 |
| 20260904091804 | 60 | 276 | 15.0 | 21.0 | 0.00 | 1.27 | 0.01 | 80 | 1000.2 |
| 20260904091608 | 59 | 289 | 17.0 | 24.0 | 0.00 | 0.32 | 0.00 | 80 | 1000.2 |
| 20260904091304 | 60 | 280 | 20.0 | 24.0 | 0.00 | 1.27 | 0.01 | 81 | 1000.2 |
| 20260904090804 | 60 | 265 | 18.0 | 22.0 | 0.00 | 1.27 | 0.01 | 82 | 1000.2 |
| 20260904090304 | 60 | 268 | 17.0 | 23.0 | 0.00 | 1.27 | 0.01 | 82 | 1000.3 |
| 20260904090106 | 60 | 268 | 17.0 | 23.0 | 0.00 | 0.32 | 0.00 | 82 | 1000.3 |
| 20260904084803 | 61 | 286 | 18.0 | 23.0 | 0.00 | 1.27 | 0.01 | 82 | 1000.3 |
| 20260904084606 | 60 | 300 | 17.0 | 23.0 | 0.00 | 0.32 | 0.00 | 81 | 1000.3 |
| 20260904084304 | 61 | 274 | 15.0 | 23.0 | 0.00 | 1.27 | 0.01 | 82 | 1000.3 |
| 20260904083804 | 60 | 285 | 17.0 | 21.0 | 0.00 | 1.27 | 0.01 | 82 | 1000.3 |
| 20260904083304 | 61 | 287 | 17.0 | 21.0 | 0.00 | 1.27 | 0.01 | 82 | 1000.3 |
| 20260904083109 | 60 | 274 | 14.0 | 23.0 | 0.00 | 0.32 | 0.00 | 82 | 1000.2 |
| 20260904081804 | 61 | 265 | 17.0 | 22.0 | 0.00 | 1.27 | 0.01 | 82 | 1000.4 |
| 20260904081603 | 60 | 245 | 17.0 | 23.0 | 0.00 | 0.32 | 0.00 | 82 | 1000.4 |
| 20260904081304 | 61 | 273 | 18.0 | 23.0 | 0.00 | 1.27 | 0.01 | 82 | 1000.4 |
| 20260904080804 | 60 | 270 | 19.0 | 23.0 | 0.00 | 1.27 | 0.01 | 82 | 1000.3 |
| 20260904080304 | 60 | 266 | 17.0 | 24.0 | 0.00 | 1.27 | 0.01 | 83 | 1000.3 |
| 20260904080117 | 60 | 270 | 17.0 | 24.0 | 0.00 | 0.32 | 0.00 | 82 | 1000.4 |
| 20260904074605 | 60 | 270 | 19.0 | 24.0 | 0.00 | 0.32 | 0.00 | 82 | 1000.4 |
| 20260904074304 | 61 | 271 | 20.0 | 24.0 | 0.00 | 1.27 | 0.01 | 82 | 1000.5 |
| 20260904073804 | 61 | 273 | 18.0 | 21.0 | 0.00 | 1.27 | 0.01 | 82 | 1000.6 |
| 20260904073305 | 61 | 273 | 16.0 | 25.0 | 0.00 | 1.27 | 0.01 | 81 | 1000.6 |
| 20260904073105 | 60 | 271 | 17.0 | 25.0 | 0.00 | 0.32 | 0.00 | 80 | 1000.5 |
| 20260904071804 | 61 | 285 | 20.0 | 25.0 | 0.00 | 1.27 | 0.01 | 80 | 1000.7 |
| 20260904071604 | 60 | 276 | 19.0 | 26.0 | 0.00 | 0.32 | 0.00 | 80 | 1000.8 |
| 20260904071304 | 61 | 274 | 19.0 | 24.0 | 0.00 | 1.27 | 0.01 | 81 | 1000.7 |
| 20260904070804 | 61 | 283 | 22.0 | 26.0 | 0.00 | 1.27 | 0.01 | 81 | 1000.8 |
| 20260904070304 | 61 | 283 | 21.0 | 24.0 | 0.00 | 1.27 | 0.01 | 81 | 1000.8 |
| 20260904070106 | 60 | 289 | 17.0 | 24.0 | 0.00 | 0.32 | 0.00 | 81 | 1000.7 |
| 20260904064804 | 60 | 272 | 16.0 | 21.0 | 0.00 | 1.27 | 0.01 | 81 | 1000.8 |
| 20260904064621 | 60 | 276 | 15.0 | 23.0 | 0.00 | 0.32 | 0.00 | 81 | 1000.7 |
| 20260904063804 | 61 | 274 | 18.0 | 23.0 | 0.00 | 1.27 | 0.01 | 82 | 1000.7 |
| 20260904063304 | 61 | 283 | 18.0 | 23.0 | 0.00 | 1.27 | 0.01 | 81 | 1000.9 |
| 20260904063106 | 60 | 274 | 16.0 | 22.0 | 0.00 | 0.32 | 0.00 | 81 | 1000.9 |
| 20260904061603 | 60 | 283 | 16.0 | 28.0 | 0.00 | 0.32 | 0.00 | 80 | 1001.0 |
| 20260904061304 | 61 | 284 | 17.0 | 25.0 | 0.00 | 1.26 | 0.01 | 80 | 1001.1 |
| 20260904060804 | 61 | 289 | 22.0 | 28.0 | 0.00 | 1.26 | 0.01 | 80 | 1001.0 |
| 20260904060304 | 61 | 289 | 20.0 | 28.0 | 0.00 | 1.26 | 0.01 | 80 | 1001.0 |
| 20260904060110 | 60 | 295 | 22.0 | 28.0 | 0.00 | 0.32 | 0.00 | 79 | 1000.9 |
| 20260904054604 | 60 | 293 | 18.0 | 28.0 | 0.00 | 0.32 | 0.00 | 80 | 1001.1 |
| 20260904054304 | 61 | 304 | 22.0 | 28.0 | 0.00 | 1.26 | 0.01 | 80 | 1001.3 |
| 20260904053804 | 61 | 299 | 22.0 | 26.0 | 0.00 | 1.26 | 0.01 | 80 | 1001.3 |
| 20260904053111 | 60 | 291 | 19.0 | 29.0 | 0.00 | 0.32 | 0.00 | 79 | 1001.2 |
| 20260904051607 | 60 | 276 | 20.0 | 26.0 | 0.00 | 0.32 | 0.00 | 80 | 1001.3 |
| 20260904051304 | 61 | 296 | 21.0 | 24.0 | 0.00 | 1.26 | 0.01 | 80 | 1001.4 |
| 20260904050804 | 60 | 291 | 21.0 | 29.0 | 0.00 | 1.26 | 0.01 | 80 | 1001.4 |
| 20260904050304 | 60 | 290 | 20.0 | 28.0 | 0.00 | 1.26 | 0.01 | 80 | 1001.4 |
| 20260904050144 | 60 | 278 | 22.0 | 28.0 | 0.00 | 0.32 | 0.00 | 80 | 1001.2 |
| 20260904044602 | 60 | 270 | 23.0 | 31.0 | 0.00 | 0.32 | 0.00 | 80 | 1001.2 |
| 20260904043804 | 60 | 289 | 22.0 | 31.0 | 0.00 | 1.26 | 0.01 | 80 | 1001.4 |
| 20260904043304 | 60 | 307 | 20.0 | 26.0 | 0.00 | 1.26 | 0.01 | 80 | 1001.4 |
| 20260904043104 | 60 | 295 | 15.0 | 26.0 | 0.00 | 0.32 | 0.00 | 80 | 1001.3 |
| 20260904041615 | 60 | 300 | 20.0 | 28.0 | 0.00 | 0.32 | 0.00 | 80 | 1001.5 |
| 20260904041304 | 61 | 294 | 21.0 | 26.0 | 0.00 | 1.26 | 0.01 | 81 | 1001.5 |
| 20260904040304 | 60 | 290 | 20.0 | 30.0 | 0.00 | 1.26 | 0.01 | 81 | 1001.4 |
| 20260904040107 | 60 | 305 | 19.0 | 30.0 | 0.00 | 0.32 | 0.00 | 80 | 1001.4 |
| 20260904034803 | 60 | 295 | 21.0 | 26.0 | 0.00 | 1.26 | 0.01 | 81 | 1001.4 |
| 20260904034617 | 60 | 300 | 21.0 | 30.0 | 0.00 | 0.32 | 0.00 | 81 | 1001.4 |
| 20260904034304 | 60 | 295 | 18.0 | 26.0 | 0.00 | 1.26 | 0.01 | 81 | 1001.4 |
| 20260904033804 | 61 | 294 | 20.0 | 30.0 | 0.00 | 1.26 | 0.01 | 81 | 1001.4 |
| 20260904033305 | 60 | 292 | 22.0 | 33.0 | 0.00 | 1.25 | 0.01 | 81 | 1001.5 |
| 20260904033108 | 60 | 289 | 24.0 | 33.0 | 0.00 | 0.32 | 0.00 | 81 | 1001.4 |
| 20260904031804 | 60 | 297 | 21.0 | 26.0 | 0.00 | 1.25 | 0.01 | 82 | 1001.6 |
| 20260904031604 | 60 | 305 | 21.0 | 31.0 | 0.00 | 0.32 | 0.00 | 81 | 1001.6 |
| 20260904031304 | 61 | 289 | 20.0 | 28.0 | 0.00 | 1.25 | 0.01 | 82 | 1001.7 |
| 20260904030804 | 60 | 298 | 22.0 | 31.0 | 0.00 | 1.25 | 0.01 | 82 | 1001.8 |
| 20260904030303 | 60 | 295 | 22.0 | 29.0 | 0.00 | 1.25 | 0.01 | 81 | 1001.8 |
| 20260904030107 | 60 | 294 | 22.0 | 29.0 | 0.00 | 0.32 | 0.00 | 81 | 1001.8 |
| 20260904024804 | 60 | 299 | 20.0 | 29.0 | 0.00 | 1.25 | 0.01 | 81 | 1001.8 |
| 20260904024607 | 60 | 289 | 19.0 | 31.0 | 0.00 | 0.32 | 0.00 | 81 | 1001.7 |
| 20260904024304 | 60 | 299 | 21.0 | 30.0 | 0.00 | 1.25 | 0.01 | 81 | 1001.8 |
| 20260904023304 | 60 | 296 | 24.0 | 31.0 | 0.00 | 1.25 | 0.01 | 81 | 1001.9 |
| 20260904023108 | 60 | 310 | 22.0 | 31.0 | 0.00 | 0.32 | 0.00 | 81 | 1001.8 |
| 20260904021804 | 61 | 289 | 22.0 | 29.0 | 0.00 | 1.24 | 0.01 | 82 | 1001.9 |
| 20260904021603 | 60 | 300 | 21.0 | 33.0 | 0.00 | 0.32 | 0.00 | 81 | 1001.8 |
| 20260904021304 | 60 | 297 | 24.0 | 31.0 | 0.00 | 1.24 | 0.01 | 82 | 1002.0 |
| 20260904020804 | 60 | 291 | 25.0 | 30.0 | 0.00 | 1.24 | 0.01 | 82 | 1002.0 |
| 20260904020304 | 61 | 296 | 25.0 | 31.0 | 0.00 | 1.24 | 0.01 | 82 | 1002.1 |
| 20260904020104 | 60 | 287 | 24.0 | 31.0 | 0.00 | 0.32 | 0.00 | 82 | 1002.1 |
| 20260904014804 | 60 | 293 | 22.0 | 28.0 | 0.00 | 1.24 | 0.01 | 83 | 1002.1 |
| 20260904014634 | 60 | 310 | 22.0 | 30.0 | 0.00 | 0.32 | 0.00 | 82 | 1001.9 |
| 20260904014303 | 61 | 289 | 21.0 | 30.0 | 0.00 | 1.24 | 0.01 | 83 | 1002.1 |
| 20260904013304 | 60 | 289 | 17.0 | 30.0 | 0.00 | 1.24 | 0.01 | 83 | 1002.2 |
| 20260904013104 | 60 | 285 | 19.0 | 30.0 | 0.00 | 0.32 | 0.00 | 82 | 1002.1 |
| 20260904011804 | 60 | 295 | 22.0 | 29.0 | 0.00 | 1.24 | 0.01 | 83 | 1002.2 |
| 20260904011609 | 60 | 300 | 23.0 | 29.0 | 0.00 | 0.32 | 0.00 | 83 | 1002.1 |
| 20260904010813 | 60 | 284 | 21.0 | 26.0 | 0.00 | 1.24 | 0.01 | 83 | 1002.2 |
| 20260904010107 | 60 | 261 | 18.0 | 26.0 | 0.00 | 0.32 | 0.00 | 83 | 1002.2 |
| 20260904004804 | 60 | 292 | 20.0 | 26.0 | 0.00 | 1.24 | 0.01 | 84 | 1002.7 |
| 20260904004604 | 60 | 295 | 19.0 | 28.0 | 0.00 | 0.32 | 0.00 | 83 | 1002.6 |
| 20260904004304 | 61 | 295 | 21.0 | 28.0 | 0.00 | 1.24 | 0.01 | 84 | 1002.8 |
| 20260904003804 | 61 | 290 | 16.0 | 24.0 | 0.00 | 1.24 | 0.01 | 84 | 1002.8 |
| 20260904003304 | 61 | 302 | 21.0 | 30.0 | 0.00 | 1.24 | 0.01 | 84 | 1002.8 |
| 20260904003104 | 60 | 332 | 21.0 | 30.0 | 0.00 | 0.32 | 0.00 | 84 | 1002.7 |
| 20260904001805 | 60 | 298 | 20.0 | 26.0 | 0.00 | 1.24 | 0.01 | 84 | 1003.0 |
| 20260904001608 | 60 | 293 | 19.0 | 31.0 | 0.00 | 0.32 | 0.00 | 84 | 1003.0 |
| 20260904001305 | 60 | 288 | 19.0 | 26.0 | 0.00 | 1.24 | 0.01 | 84 | 1002.9 |
| 20260904000804 | 61 | 302 | 22.0 | 31.0 | 0.00 | 1.24 | 0.01 | 84 | 1003.0 |
| 20260904000109 | 60 | 300 | 26.0 | 32.0 | 0.00 | 0.32 | 0.00 | 84 | 1003.0 |
| 20260903234607 | 60 | 291 | 19.0 | 30.0 | 0.00 | 0.32 | 0.00 | 85 | 1002.8 |
| 20260903234303 | 60 | 289 | 22.0 | 26.0 | 0.00 | 1.24 | 0.01 | 85 | 1002.8 |
| 20260903233307 | 60 | 283 | 22.0 | 30.0 | 0.00 | 1.24 | 0.01 | 86 | 1002.9 |
| 20260903233106 | 60 | 297 | 21.0 | 30.0 | 0.00 | 0.32 | 0.00 | 85 | 1002.9 |
| 20260903231804 | 60 | 301 | 21.0 | 29.0 | 0.01 | 1.24 | 0.01 | 87 | 1003.1 |
| 20260903231629 | 59 | 305 | 20.0 | 30.0 | 0.00 | 0.32 | 0.00 | 86 | 1003.1 |
| 20260903231304 | 60 | 299 | 22.0 | 30.0 | 0.01 | 1.24 | 0.01 | 87 | 1003.0 |
| 20260903230804 | 60 | 291 | 18.0 | 30.0 | 0.01 | 1.24 | 0.01 | 87 | 1003.1 |
| 20260903230121 | 59 | 300 | 24.0 | 32.0 | 0.00 | 0.32 | 0.00 | 87 | 1003.0 |
| 20260903224627 | 59 | 294 | 21.0 | 31.0 | 0.00 | 0.32 | 0.00 | 87 | 1002.8 |
| 20260903224304 | 60 | 292 | 24.0 | 31.0 | 0.02 | 1.23 | 0.01 | 87 | 1002.9 |
| 20260903223805 | 60 | 305 | 23.0 | 31.0 | 0.01 | 1.22 | 0.01 | 88 | 1002.9 |
| 20260903223304 | 60 | 305 | 20.0 | 33.0 | 0.01 | 1.22 | 0.01 | 88 | 1003.1 |
| 20260903223117 | 60 | 305 | 22.0 | 33.0 | 0.00 | 0.32 | 0.00 | 87 | 1003.1 |
| 20260903221804 | 60 | 300 | 21.0 | 26.0 | 0.02 | 1.21 | 0.00 | 88 | 1003.0 |
| 20260903221605 | 60 | 300 | 18.0 | 29.0 | 0.01 | 0.31 | 0.00 | 87 | 1002.9 |
| 20260903221304 | 60 | 299 | 20.0 | 25.0 | 0.02 | 1.21 | 0.00 | 88 | 1003.0 |
| 20260903220828 | 60 | 306 | 18.0 | 29.0 | 0.02 | 1.21 | 0.00 | 88 | 1003.0 |
| 20260903220304 | 60 | 307 | 20.0 | 31.0 | 0.02 | 1.21 | 0.00 | 88 | 1003.0 |
| 20260903220116 | 60 | 310 | 20.0 | 31.0 | 0.01 | 0.31 | 0.00 | 87 | 1002.9 |
| 20260903214804 | 60 | 302 | 21.0 | 31.0 | 0.05 | 1.21 | 0.31 | 88 | 1003.0 |
| 20260903214606 | 60 | 310 | 22.0 | 31.0 | 0.04 | 0.31 | 0.31 | 88 | 1002.9 |
| 20260903214304 | 60 | 302 | 23.0 | 29.0 | 0.05 | 1.24 | 0.31 | 88 | 1003.0 |
| 20260903213804 | 60 | 304 | 23.0 | 29.0 | 0.05 | 1.24 | 0.31 | 88 | 1002.9 |
| 20260903213304 | 60 | 298 | 20.0 | 29.0 | 0.05 | 1.24 | 0.31 | 88 | 1002.9 |
| 20260903213107 | 60 | 278 | 19.0 | 27.0 | 0.04 | 0.31 | 0.31 | 87 | 1002.9 |
| 20260903211804 | 60 | 266 | 17.0 | 20.0 | 0.03 | 1.23 | 0.30 | 88 | 1002.9 |
| 20260903211616 | 60 | 254 | 16.0 | 21.0 | 0.03 | 0.29 | 0.29 | 87 | 1002.8 |
| 20260903211304 | 60 | 268 | 15.0 | 20.0 | 0.03 | 1.23 | 0.30 | 88 | 1002.9 |
| 20260903210304 | 60 | 261 | 10.0 | 14.0 | 0.03 | 1.23 | 0.30 | 88 | 1002.9 |
| 20260903210106 | 59 | 235 | 6.0 | 11.0 | 0.03 | 0.29 | 0.29 | 87 | 1002.9 |
| 20260903204804 | 59 | 141 | 6.0 | 7.0 | 0.00 | 1.20 | 0.27 | 88 | 1003.0 |
| 20260903204607 | 59 | 135 | 4.0 | 8.0 | 0.00 | 0.26 | 0.26 | 87 | 1002.9 |
| 20260903203804 | 59 | 134 | 6.0 | 8.0 | 0.00 | 1.20 | 0.27 | 88 | 1003.0 |
| 20260903203305 | 59 | 133 | 5.0 | 7.0 | 0.00 | 0.93 | 0.27 | 88 | 1003.1 |
| 20260903203109 | 59 | 142 | 5.0 | 6.0 | 0.00 | 0.26 | 0.26 | 87 | 1003.0 |
| 20260903201804 | 59 | 131 | 5.0 | 7.0 | 0.00 | 0.96 | 0.27 | 88 | 1003.1 |
| 20260903201609 | 59 | 129 | 4.0 | 8.0 | 0.00 | 0.26 | 0.26 | 87 | 1003.1 |
| 20260903201303 | 59 | 127 | 5.0 | 7.0 | 0.00 | 0.96 | 0.27 | 88 | 1003.2 |
| 20260903200804 | 59 | 132 | 3.0 | 8.0 | 0.00 | 0.96 | 0.27 | 88 | 1003.2 |
| 20260903200110 | 59 | 133 | 5.0 | 8.0 | 0.00 | 0.26 | 0.26 | 87 | 1003.1 |
| 20260903194804 | 59 | 126 | 6.0 | 9.0 | 0.00 | 0.96 | 0.27 | 88 | 1003.3 |
| 20260903194605 | 58 | 123 | 4.0 | 8.0 | 0.00 | 0.26 | 0.26 | 87 | 1003.2 |
| 20260903194304 | 59 | 121 | 4.0 | 8.0 | 0.00 | 0.96 | 0.27 | 88 | 1003.3 |
| 20260903193804 | 59 | 134 | 7.0 | 8.0 | 0.00 | 0.96 | 0.27 | 88 | 1003.3 |
| 20260903193107 | 59 | 133 | 5.0 | 9.0 | 0.00 | 0.26 | 0.26 | 87 | 1003.3 |
| 20260903191804 | 59 | 129 | 6.0 | 10.0 | 0.00 | 0.69 | 0.27 | 88 | 1003.5 |
| 20260903191609 | 59 | 129 | 5.0 | 10.0 | 0.00 | 0.26 | 0.26 | 87 | 1003.5 |
| 20260903191307 | 59 | 124 | 6.0 | 9.0 | 0.00 | 0.69 | 0.27 | 88 | 1003.4 |
| 20260903190804 | 59 | 132 | 8.0 | 10.0 | 0.00 | 0.69 | 0.27 | 87 | 1003.5 |
| 20260903190304 | 59 | 131 | 6.0 | 8.0 | 0.00 | 0.69 | 0.27 | 87 | 1003.6 |
| 20260903190106 | 59 | 132 | 5.0 | 8.0 | 0.00 | 0.26 | 0.26 | 87 | 1003.5 |
| 20260903184605 | 59 | 113 | 3.0 | 7.0 | 0.00 | 0.26 | 0.26 | 87 | 1003.6 |
| 20260903183304 | 59 | 108 | 5.0 | 8.0 | 0.00 | 0.69 | 0.27 | 88 | 1003.6 |
| 20260903183122 | 59 | 116 | 3.0 | 7.0 | 0.00 | 0.26 | 0.26 | 87 | 1003.5 |
| 20260903181804 | 59 | 108 | 3.0 | 6.0 | 0.00 | 0.69 | 0.27 | 87 | 1003.8 |
| 20260903181639 | 59 | 87 | 2.0 | 6.0 | 0.00 | 0.26 | 0.26 | 87 | 1003.7 |
| 20260903181304 | 60 | 110 | 3.0 | 6.0 | 0.00 | 0.69 | 0.27 | 87 | 1003.9 |
| 20260903180804 | 60 | 110 | 3.0 | 6.0 | 0.00 | 0.69 | 0.27 | 87 | 1003.8 |
| 20260903180304 | 60 | 112 | 3.0 | 7.0 | 0.00 | 0.72 | 0.27 | 87 | 1003.8 |
| 20260903180109 | 59 | 114 | 3.0 | 7.0 | 0.00 | 0.26 | 0.26 | 87 | 1003.7 |
| 20260903174804 | 60 | 105 | 3.0 | 6.0 | 0.00 | 0.72 | 0.27 | 87 | 1003.7 |
| 20260903174605 | 59 | 115 | 2.0 | 6.0 | 0.00 | 0.26 | 0.26 | 87 | 1003.7 |
| 20260903173803 | 60 | 103 | 3.0 | 6.0 | 0.00 | 0.46 | 0.27 | 87 | 1003.7 |
| 20260903173304 | 60 | 109 | 3.0 | 7.0 | 0.00 | 0.46 | 0.27 | 87 | 1003.8 |
| 20260903173111 | 59 | 105 | 2.0 | 7.0 | 0.00 | 0.26 | 0.26 | 87 | 1003.7 |
| 20260903171804 | 60 | 108 | 3.0 | 6.0 | 0.00 | 0.46 | 0.27 | 87 | 1003.9 |
| 20260903171607 | 59 | 107 | 3.0 | 7.0 | 0.00 | 0.26 | 0.26 | 87 | 1003.8 |
| 20260903171304 | 60 | 127 | 3.0 | 7.0 | 0.00 | 0.46 | 0.27 | 87 | 1003.7 |
| 20260903170804 | 60 | 131 | 5.0 | 7.0 | 0.00 | 0.46 | 0.27 | 87 | 1003.8 |
| 20260903170304 | 60 | 123 | 4.0 | 9.0 | 0.00 | 0.46 | 0.27 | 87 | 1003.7 |
| 20260903170109 | 59 | 127 | 5.0 | 9.0 | 0.00 | 0.26 | 0.26 | 87 | 1003.6 |
| 20260903164804 | 60 | 117 | 3.0 | 6.0 | 0.01 | 0.46 | 0.27 | 87 | 1003.9 |
| 20260903164608 | 59 | 117 | 3.0 | 7.0 | 0.00 | 0.26 | 0.26 | 87 | 1003.9 |
| 20260903164304 | 60 | 122 | 5.0 | 7.0 | 0.01 | 0.46 | 0.27 | 87 | 1003.9 |
| 20260903163304 | 60 | 114 | 3.0 | 6.0 | 0.05 | 0.46 | 0.27 | 87 | 1004.2 |
| 20260903163106 | 59 | 87 | 1.0 | 6.0 | 0.06 | 0.26 | 0.26 | 87 | 1004.0 |
| 20260903161804 | 60 | 108 | 1.0 | 3.0 | 0.17 | 0.46 | 0.27 | 87 | 1004.3 |
| 20260903161618 | 60 | 0 | 2.0 | 7.0 | 0.17 | 0.26 | 0.26 | 86 | 1004.3 |
| 20260903161304 | 60 | 82 | 3.0 | 7.0 | 0.17 | 0.46 | 0.27 | 87 | 1004.3 |
| 20260903160804 | 60 | 85 | 2.0 | 5.0 | 0.18 | 0.46 | 0.27 | 87 | 1004.2 |
| 20260903160304 | 60 | 110 | 2.0 | 9.0 | 0.19 | 0.46 | 0.27 | 87 | 1004.4 |
| 20260903160109 | 60 | 93 | 1.0 | 9.0 | 0.18 | 0.26 | 0.26 | 86 | 1004.4 |
| 20260903154804 | 60 | 107 | 3.0 | 7.0 | 0.20 | 0.45 | 0.26 | 87 | 1004.5 |
| 20260903154607 | 60 | 112 | 2.0 | 8.0 | 0.19 | 0.25 | 0.25 | 86 | 1004.5 |
| 20260903154304 | 60 | 114 | 2.0 | 8.0 | 0.20 | 0.48 | 0.26 | 87 | 1004.6 |
| 20260903153304 | 60 | 153 | 5.0 | 8.0 | 0.18 | 0.47 | 0.22 | 86 | 1004.7 |
| 20260903153107 | 60 | 158 | 4.0 | 7.0 | 0.17 | 0.20 | 0.20 | 86 | 1004.8 |
| 20260903151804 | 60 | 167 | 5.0 | 8.0 | 0.08 | 0.35 | 0.09 | 86 | 1004.9 |
| 20260903151617 | 60 | 137 | 2.0 | 7.0 | 0.07 | 0.09 | 0.09 | 86 | 1004.9 |
| 20260903150804 | 60 | 133 | 4.0 | 7.0 | 0.07 | 0.34 | 0.09 | 86 | 1004.9 |
| 20260903150304 | 60 | 137 | 6.0 | 12.0 | 0.07 | 0.25 | 0.08 | 86 | 1004.9 |
| 20260903150107 | 60 | 139 | 7.0 | 11.0 | 0.07 | 0.07 | 0.07 | 86 | 1004.7 |